sensor_id;sensor_type;location;lat;lon;timestamp;P1;durP1;ratioP1;P2;durP2;ratioP2
37715;SDS011;23562;50.540;12.504;2023-04-16T00:00:53;22.10;;;13.20;;
37715;SDS011;23562;50.540;12.504;2023-04-16T00:03:18;21.97;;;12.00;;
37715;SDS011;23562;50.540;12.504;2023-04-16T00:05:44;24.70;;;12.73;;
37715;SDS011;23562;50.540;12.504;2023-04-16T00:08:09;25.52;;;13.52;;
37715;SDS011;23562;50.540;12.504;2023-04-16T00:10:34;23.03;;;11.93;;
37715;SDS011;23562;50.540;12.504;2023-04-16T00:12:59;22.17;;;11.90;;
37715;SDS011;23562;50.540;12.504;2023-04-16T00:15:24;23.60;;;12.70;;
37715;SDS011;23562;50.540;12.504;2023-04-16T00:17:50;25.80;;;12.68;;
37715;SDS011;23562;50.540;12.504;2023-04-16T00:20:15;27.85;;;12.73;;
37715;SDS011;23562;50.540;12.504;2023-04-16T00:22:40;23.03;;;12.23;;
37715;SDS011;23562;50.540;12.504;2023-04-16T00:25:05;18.33;;;10.65;;
37715;SDS011;23562;50.540;12.504;2023-04-16T00:27:30;18.65;;;10.60;;
37715;SDS011;23562;50.540;12.504;2023-04-16T00:29:55;18.48;;;10.93;;
37715;SDS011;23562;50.540;12.504;2023-04-16T00:32:21;20.40;;;10.77;;
37715;SDS011;23562;50.540;12.504;2023-04-16T00:34:46;21.43;;;11.60;;
37715;SDS011;23562;50.540;12.504;2023-04-16T00:37:11;29.58;;;11.48;;
37715;SDS011;23562;50.540;12.504;2023-04-16T00:39:36;21.67;;;11.23;;
37715;SDS011;23562;50.540;12.504;2023-04-16T00:42:01;20.65;;;11.57;;
37715;SDS011;23562;50.540;12.504;2023-04-16T00:44:26;30.23;;;11.85;;
37715;SDS011;23562;50.540;12.504;2023-04-16T00:46:51;21.30;;;11.37;;
37715;SDS011;23562;50.540;12.504;2023-04-16T00:49:17;21.33;;;11.45;;
37715;SDS011;23562;50.540;12.504;2023-04-16T00:51:42;21.25;;;11.27;;
37715;SDS011;23562;50.540;12.504;2023-04-16T00:54:07;19.60;;;10.63;;
37715;SDS011;23562;50.540;12.504;2023-04-16T00:56:33;20.60;;;11.23;;
37715;SDS011;23562;50.540;12.504;2023-04-16T00:58:58;20.48;;;10.57;;
37715;SDS011;23562;50.540;12.504;2023-04-16T01:01:23;18.77;;;10.10;;
37715;SDS011;23562;50.540;12.504;2023-04-16T01:03:48;19.10;;;10.05;;
37715;SDS011;23562;50.540;12.504;2023-04-16T01:06:15;20.57;;;10.17;;
37715;SDS011;23562;50.540;12.504;2023-04-16T01:08:40;17.98;;;10.07;;
37715;SDS011;23562;50.540;12.504;2023-04-16T01:11:05;25.52;;;11.80;;
37715;SDS011;23562;50.540;12.504;2023-04-16T01:13:31;18.75;;;10.48;;
37715;SDS011;23562;50.540;12.504;2023-04-16T01:15:56;19.80;;;9.68;;
37715;SDS011;23562;50.540;12.504;2023-04-16T01:18:22;19.70;;;10.67;;
37715;SDS011;23562;50.540;12.504;2023-04-16T01:20:48;20.48;;;10.95;;
37715;SDS011;23562;50.540;12.504;2023-04-16T01:23:13;18.40;;;10.20;;
37715;SDS011;23562;50.540;12.504;2023-04-16T01:25:38;23.73;;;11.18;;
37715;SDS011;23562;50.540;12.504;2023-04-16T01:28:04;20.90;;;10.43;;
37715;SDS011;23562;50.540;12.504;2023-04-16T01:30:29;23.13;;;11.07;;
37715;SDS011;23562;50.540;12.504;2023-04-16T01:32:54;22.50;;;10.95;;
37715;SDS011;23562;50.540;12.504;2023-04-16T01:35:20;22.73;;;10.57;;
37715;SDS011;23562;50.540;12.504;2023-04-16T01:37:45;22.23;;;10.88;;
37715;SDS011;23562;50.540;12.504;2023-04-16T01:40:10;23.23;;;11.10;;
37715;SDS011;23562;50.540;12.504;2023-04-16T01:42:36;21.45;;;10.77;;
37715;SDS011;23562;50.540;12.504;2023-04-16T01:45:01;24.33;;;11.27;;
37715;SDS011;23562;50.540;12.504;2023-04-16T01:47:26;22.85;;;10.93;;
37715;SDS011;23562;50.540;12.504;2023-04-16T01:49:51;22.67;;;11.30;;
37715;SDS011;23562;50.540;12.504;2023-04-16T01:52:16;21.77;;;11.50;;
37715;SDS011;23562;50.540;12.504;2023-04-16T01:54:41;20.40;;;10.50;;
37715;SDS011;23562;50.540;12.504;2023-04-16T01:57:06;23.30;;;10.75;;
37715;SDS011;23562;50.540;12.504;2023-04-16T01:59:32;20.10;;;10.90;;
37715;SDS011;23562;50.540;12.504;2023-04-16T02:01:59;21.25;;;10.13;;
37715;SDS011;23562;50.540;12.504;2023-04-16T02:04:26;18.13;;;9.40;;
37715;SDS011;23562;50.540;12.504;2023-04-16T02:06:51;20.67;;;10.47;;
37715;SDS011;23562;50.540;12.504;2023-04-16T02:09:17;19.33;;;10.20;;
37715;SDS011;23562;50.540;12.504;2023-04-16T02:11:42;21.30;;;10.00;;
37715;SDS011;23562;50.540;12.504;2023-04-16T02:14:07;23.92;;;10.93;;
37715;SDS011;23562;50.540;12.504;2023-04-16T02:16:32;24.48;;;9.90;;
37715;SDS011;23562;50.540;12.504;2023-04-16T02:18:58;19.70;;;9.60;;
37715;SDS011;23562;50.540;12.504;2023-04-16T02:21:23;20.73;;;9.43;;
37715;SDS011;23562;50.540;12.504;2023-04-16T02:23:49;21.23;;;10.35;;
37715;SDS011;23562;50.540;12.504;2023-04-16T02:26:15;21.38;;;10.38;;
37715;SDS011;23562;50.540;12.504;2023-04-16T02:28:41;19.45;;;9.75;;
37715;SDS011;23562;50.540;12.504;2023-04-16T02:31:06;20.00;;;9.88;;
37715;SDS011;23562;50.540;12.504;2023-04-16T02:33:31;21.10;;;10.20;;
37715;SDS011;23562;50.540;12.504;2023-04-16T02:35:56;20.13;;;9.75;;
37715;SDS011;23562;50.540;12.504;2023-04-16T02:38:21;19.40;;;9.60;;
37715;SDS011;23562;50.540;12.504;2023-04-16T02:40:46;19.10;;;9.82;;
37715;SDS011;23562;50.540;12.504;2023-04-16T02:43:11;20.15;;;10.13;;
37715;SDS011;23562;50.540;12.504;2023-04-16T02:45:37;26.27;;;10.17;;
37715;SDS011;23562;50.540;12.504;2023-04-16T02:48:02;22.05;;;10.57;;
37715;SDS011;23562;50.540;12.504;2023-04-16T02:50:27;24.67;;;11.53;;
37715;SDS011;23562;50.540;12.504;2023-04-16T02:52:52;28.20;;;10.60;;
37715;SDS011;23562;50.540;12.504;2023-04-16T02:55:17;26.63;;;11.57;;
37715;SDS011;23562;50.540;12.504;2023-04-16T02:57:42;23.53;;;10.60;;
37715;SDS011;23562;50.540;12.504;2023-04-16T03:00:07;22.02;;;10.25;;
37715;SDS011;23562;50.540;12.504;2023-04-16T03:02:33;24.63;;;10.93;;
37715;SDS011;23562;50.540;12.504;2023-04-16T03:04:58;20.50;;;10.03;;
37715;SDS011;23562;50.540;12.504;2023-04-16T03:07:23;23.75;;;11.32;;
37715;SDS011;23562;50.540;12.504;2023-04-16T03:09:48;23.37;;;10.87;;
37715;SDS011;23562;50.540;12.504;2023-04-16T03:12:13;24.33;;;11.25;;
37715;SDS011;23562;50.540;12.504;2023-04-16T03:14:39;20.42;;;10.55;;
37715;SDS011;23562;50.540;12.504;2023-04-16T03:17:04;20.58;;;10.57;;
37715;SDS011;23562;50.540;12.504;2023-04-16T03:19:29;20.77;;;10.85;;
37715;SDS011;23562;50.540;12.504;2023-04-16T03:21:54;17.00;;;9.82;;
37715;SDS011;23562;50.540;12.504;2023-04-16T03:24:20;17.37;;;9.97;;
37715;SDS011;23562;50.540;12.504;2023-04-16T03:26:45;19.95;;;11.05;;
37715;SDS011;23562;50.540;12.504;2023-04-16T03:29:10;20.55;;;11.13;;
37715;SDS011;23562;50.540;12.504;2023-04-16T03:31:35;19.38;;;11.55;;
37715;SDS011;23562;50.540;12.504;2023-04-16T03:34:00;20.70;;;11.88;;
37715;SDS011;23562;50.540;12.504;2023-04-16T03:36:26;18.75;;;10.65;;
37715;SDS011;23562;50.540;12.504;2023-04-16T03:38:51;23.10;;;13.20;;
37715;SDS011;23562;50.540;12.504;2023-04-16T03:41:16;20.50;;;11.80;;
37715;SDS011;23562;50.540;12.504;2023-04-16T03:43:41;20.30;;;11.68;;
37715;SDS011;23562;50.540;12.504;2023-04-16T03:46:06;19.10;;;11.18;;
37715;SDS011;23562;50.540;12.504;2023-04-16T03:48:31;19.45;;;11.15;;
37715;SDS011;23562;50.540;12.504;2023-04-16T03:50:57;18.83;;;11.53;;
37715;SDS011;23562;50.540;12.504;2023-04-16T03:56:24;20.55;;;11.77;;
37715;SDS011;23562;50.540;12.504;2023-04-16T03:58:50;21.65;;;12.27;;
37715;SDS011;23562;50.540;12.504;2023-04-16T04:01:15;22.98;;;13.27;;
37715;SDS011;23562;50.540;12.504;2023-04-16T04:03:40;33.63;;;17.80;;
37715;SDS011;23562;50.540;12.504;2023-04-16T04:06:08;65.28;;;26.35;;
37715;SDS011;23562;50.540;12.504;2023-04-16T04:08:34;48.42;;;21.20;;
37715;SDS011;23562;50.540;12.504;2023-04-16T04:10:59;42.92;;;18.65;;
37715;SDS011;23562;50.540;12.504;2023-04-16T04:13:24;34.92;;;17.58;;
37715;SDS011;23562;50.540;12.504;2023-04-16T04:15:49;28.45;;;14.15;;
37715;SDS011;23562;50.540;12.504;2023-04-16T04:18:15;29.92;;;14.35;;
37715;SDS011;23562;50.540;12.504;2023-04-16T04:20:40;25.67;;;13.63;;
37715;SDS011;23562;50.540;12.504;2023-04-16T04:23:05;30.55;;;14.65;;
37715;SDS011;23562;50.540;12.504;2023-04-16T04:25:30;27.88;;;14.35;;
37715;SDS011;23562;50.540;12.504;2023-04-16T04:27:55;25.00;;;12.70;;
37715;SDS011;23562;50.540;12.504;2023-04-16T04:30:21;22.55;;;12.80;;
37715;SDS011;23562;50.540;12.504;2023-04-16T04:32:46;23.67;;;12.05;;
37715;SDS011;23562;50.540;12.504;2023-04-16T04:35:11;18.48;;;9.30;;
37715;SDS011;23562;50.540;12.504;2023-04-16T04:37:36;15.07;;;9.45;;
37715;SDS011;23562;50.540;12.504;2023-04-16T04:40:01;19.37;;;10.73;;
37715;SDS011;23562;50.540;12.504;2023-04-16T04:42:26;220.10;;;106.10;;
37715;SDS011;23562;50.540;12.504;2023-04-16T04:44:51;208.57;;;105.40;;
37715;SDS011;23562;50.540;12.504;2023-04-16T04:47:16;187.82;;;93.72;;
37715;SDS011;23562;50.540;12.504;2023-04-16T04:49:42;129.43;;;74.05;;
37715;SDS011;23562;50.540;12.504;2023-04-16T04:52:07;78.43;;;46.93;;
37715;SDS011;23562;50.540;12.504;2023-04-16T04:54:32;54.03;;;35.70;;
37715;SDS011;23562;50.540;12.504;2023-04-16T04:56:57;45.50;;;28.88;;
37715;SDS011;23562;50.540;12.504;2023-04-16T04:59:23;25.27;;;17.17;;
37715;SDS011;23562;50.540;12.504;2023-04-16T05:01:48;20.13;;;12.10;;
37715;SDS011;23562;50.540;12.504;2023-04-16T05:04:13;14.25;;;10.00;;
37715;SDS011;23562;50.540;12.504;2023-04-16T05:06:38;13.47;;;8.60;;
37715;SDS011;23562;50.540;12.504;2023-04-16T05:09:03;15.33;;;9.43;;
37715;SDS011;23562;50.540;12.504;2023-04-16T05:11:29;15.45;;;9.60;;
37715;SDS011;23562;50.540;12.504;2023-04-16T05:13:54;14.67;;;9.23;;
37715;SDS011;23562;50.540;12.504;2023-04-16T05:16:19;13.77;;;8.70;;
37715;SDS011;23562;50.540;12.504;2023-04-16T05:18:44;14.52;;;9.98;;
37715;SDS011;23562;50.540;12.504;2023-04-16T05:21:10;15.23;;;9.73;;
37715;SDS011;23562;50.540;12.504;2023-04-16T05:23:35;15.02;;;9.70;;
37715;SDS011;23562;50.540;12.504;2023-04-16T05:26:00;18.23;;;12.07;;
37715;SDS011;23562;50.540;12.504;2023-04-16T05:28:25;19.65;;;12.10;;
37715;SDS011;23562;50.540;12.504;2023-04-16T05:30:50;18.35;;;12.55;;
37715;SDS011;23562;50.540;12.504;2023-04-16T05:33:15;16.27;;;10.95;;
37715;SDS011;23562;50.540;12.504;2023-04-16T05:35:41;15.27;;;9.88;;
37715;SDS011;23562;50.540;12.504;2023-04-16T05:38:06;16.70;;;10.37;;
37715;SDS011;23562;50.540;12.504;2023-04-16T05:40:31;14.20;;;8.90;;
37715;SDS011;23562;50.540;12.504;2023-04-16T05:42:56;13.40;;;8.23;;
37715;SDS011;23562;50.540;12.504;2023-04-16T05:45:21;12.70;;;8.82;;
37715;SDS011;23562;50.540;12.504;2023-04-16T05:47:56;10.10;;;7.78;;
37715;SDS011;23562;50.540;12.504;2023-04-16T05:50:21;12.82;;;7.72;;
37715;SDS011;23562;50.540;12.504;2023-04-16T05:52:46;11.98;;;8.50;;
37715;SDS011;23562;50.540;12.504;2023-04-16T05:55:11;11.68;;;7.95;;
37715;SDS011;23562;50.540;12.504;2023-04-16T05:57:36;12.20;;;8.23;;
37715;SDS011;23562;50.540;12.504;2023-04-16T06:00:01;11.02;;;8.13;;
37715;SDS011;23562;50.540;12.504;2023-04-16T06:02:27;10.95;;;8.07;;
37715;SDS011;23562;50.540;12.504;2023-04-16T06:04:54;10.70;;;8.15;;
37715;SDS011;23562;50.540;12.504;2023-04-16T06:07:19;10.70;;;7.18;;
37715;SDS011;23562;50.540;12.504;2023-04-16T06:09:44;9.50;;;6.93;;
37715;SDS011;23562;50.540;12.504;2023-04-16T06:12:10;9.50;;;7.03;;
37715;SDS011;23562;50.540;12.504;2023-04-16T06:14:35;8.73;;;6.77;;
37715;SDS011;23562;50.540;12.504;2023-04-16T06:17:00;9.30;;;6.72;;
37715;SDS011;23562;50.540;12.504;2023-04-16T06:19:25;9.63;;;7.57;;
37715;SDS011;23562;50.540;12.504;2023-04-16T06:21:51;10.30;;;7.55;;
37715;SDS011;23562;50.540;12.504;2023-04-16T06:24:16;9.73;;;7.30;;
37715;SDS011;23562;50.540;12.504;2023-04-16T06:26:42;7.90;;;6.57;;
37715;SDS011;23562;50.540;12.504;2023-04-16T06:29:07;7.95;;;6.20;;
37715;SDS011;23562;50.540;12.504;2023-04-16T06:31:32;8.07;;;6.70;;
37715;SDS011;23562;50.540;12.504;2023-04-16T06:33:57;7.88;;;6.53;;
37715;SDS011;23562;50.540;12.504;2023-04-16T06:36:23;9.50;;;6.97;;
37715;SDS011;23562;50.540;12.504;2023-04-16T06:38:48;9.37;;;6.60;;
37715;SDS011;23562;50.540;12.504;2023-04-16T06:41:13;8.20;;;6.72;;
37715;SDS011;23562;50.540;12.504;2023-04-16T06:43:38;7.03;;;5.68;;
37715;SDS011;23562;50.540;12.504;2023-04-16T06:46:03;8.32;;;5.90;;
37715;SDS011;23562;50.540;12.504;2023-04-16T06:48:28;8.50;;;6.97;;
37715;SDS011;23562;50.540;12.504;2023-04-16T06:50:54;17.80;;;12.13;;
37715;SDS011;23562;50.540;12.504;2023-04-16T06:53:19;16.27;;;11.75;;
37715;SDS011;23562;50.540;12.504;2023-04-16T06:55:45;11.05;;;8.65;;
37715;SDS011;23562;50.540;12.504;2023-04-16T06:58:10;11.88;;;9.18;;
37715;SDS011;23562;50.540;12.504;2023-04-16T07:00:35;9.70;;;7.13;;
37715;SDS011;23562;50.540;12.504;2023-04-16T07:03:00;9.43;;;7.50;;
37715;SDS011;23562;50.540;12.504;2023-04-16T07:05:25;11.65;;;7.20;;
37715;SDS011;23562;50.540;12.504;2023-04-16T07:07:51;9.05;;;6.57;;
37715;SDS011;23562;50.540;12.504;2023-04-16T07:10:16;10.97;;;8.20;;
37715;SDS011;23562;50.540;12.504;2023-04-16T07:12:41;10.73;;;8.15;;
37715;SDS011;23562;50.540;12.504;2023-04-16T07:15:06;13.60;;;9.88;;
37715;SDS011;23562;50.540;12.504;2023-04-16T07:17:31;13.93;;;9.70;;
37715;SDS011;23562;50.540;12.504;2023-04-16T07:19:56;6.90;;;4.93;;
37715;SDS011;23562;50.540;12.504;2023-04-16T07:22:22;8.27;;;5.28;;
37715;SDS011;23562;50.540;12.504;2023-04-16T07:24:47;7.45;;;4.82;;
37715;SDS011;23562;50.540;12.504;2023-04-16T07:27:12;6.43;;;5.15;;
37715;SDS011;23562;50.540;12.504;2023-04-16T07:29:37;7.60;;;5.40;;
37715;SDS011;23562;50.540;12.504;2023-04-16T07:32:03;7.25;;;5.25;;
37715;SDS011;23562;50.540;12.504;2023-04-16T07:34:28;7.55;;;5.72;;
37715;SDS011;23562;50.540;12.504;2023-04-16T07:36:53;9.65;;;5.90;;
37715;SDS011;23562;50.540;12.504;2023-04-16T07:39:18;9.25;;;6.10;;
37715;SDS011;23562;50.540;12.504;2023-04-16T07:41:43;7.50;;;5.97;;
37715;SDS011;23562;50.540;12.504;2023-04-16T07:44:08;8.93;;;5.90;;
37715;SDS011;23562;50.540;12.504;2023-04-16T07:46:33;8.85;;;6.68;;
37715;SDS011;23562;50.540;12.504;2023-04-16T07:48:59;16.77;;;10.75;;
37715;SDS011;23562;50.540;12.504;2023-04-16T07:51:24;10.00;;;7.68;;
37715;SDS011;23562;50.540;12.504;2023-04-16T07:53:50;9.90;;;7.63;;
37715;SDS011;23562;50.540;12.504;2023-04-16T07:56:15;9.75;;;7.13;;
37715;SDS011;23562;50.540;12.504;2023-04-16T07:58:40;10.43;;;7.53;;
37715;SDS011;23562;50.540;12.504;2023-04-16T08:01:05;9.18;;;6.95;;
37715;SDS011;23562;50.540;12.504;2023-04-16T08:03:30;8.88;;;7.05;;
37715;SDS011;23562;50.540;12.504;2023-04-16T08:05:55;14.87;;;10.27;;
37715;SDS011;23562;50.540;12.504;2023-04-16T08:08:20;11.70;;;9.57;;
37715;SDS011;23562;50.540;12.504;2023-04-16T08:10:46;13.65;;;10.30;;
37715;SDS011;23562;50.540;12.504;2023-04-16T08:13:11;16.58;;;12.02;;
37715;SDS011;23562;50.540;12.504;2023-04-16T08:15:36;16.57;;;11.70;;
37715;SDS011;23562;50.540;12.504;2023-04-16T08:18:01;15.40;;;11.63;;
37715;SDS011;23562;50.540;12.504;2023-04-16T08:20:26;15.43;;;11.27;;
37715;SDS011;23562;50.540;12.504;2023-04-16T08:22:52;14.87;;;11.37;;
37715;SDS011;23562;50.540;12.504;2023-04-16T08:25:18;15.10;;;10.93;;
37715;SDS011;23562;50.540;12.504;2023-04-16T08:27:44;17.55;;;12.73;;
37715;SDS011;23562;50.540;12.504;2023-04-16T08:30:09;23.15;;;17.85;;
37715;SDS011;23562;50.540;12.504;2023-04-16T08:32:34;21.10;;;15.68;;
37715;SDS011;23562;50.540;12.504;2023-04-16T08:34:59;18.03;;;12.17;;
37715;SDS011;23562;50.540;12.504;2023-04-16T08:37:25;15.93;;;11.03;;
37715;SDS011;23562;50.540;12.504;2023-04-16T08:39:50;14.57;;;10.48;;
37715;SDS011;23562;50.540;12.504;2023-04-16T08:42:43;13.25;;;9.70;;
37715;SDS011;23562;50.540;12.504;2023-04-16T08:45:22;11.73;;;8.60;;
37715;SDS011;23562;50.540;12.504;2023-04-16T08:47:50;70.82;;;41.47;;
37715;SDS011;23562;50.540;12.504;2023-04-16T08:50:15;26.20;;;17.83;;
37715;SDS011;23562;50.540;12.504;2023-04-16T08:52:49;18.80;;;13.23;;
37715;SDS011;23562;50.540;12.504;2023-04-16T08:55:16;15.32;;;10.00;;
37715;SDS011;23562;50.540;12.504;2023-04-16T08:57:43;13.82;;;10.38;;
37715;SDS011;23562;50.540;12.504;2023-04-16T09:00:10;14.88;;;10.77;;
37715;SDS011;23562;50.540;12.504;2023-04-16T09:02:36;19.50;;;12.57;;
37715;SDS011;23562;50.540;12.504;2023-04-16T09:05:01;18.70;;;12.67;;
37715;SDS011;23562;50.540;12.504;2023-04-16T09:07:27;20.13;;;14.32;;
37715;SDS011;23562;50.540;12.504;2023-04-16T09:09:53;19.73;;;13.85;;
37715;SDS011;23562;50.540;12.504;2023-04-16T09:12:18;15.98;;;12.23;;
37715;SDS011;23562;50.540;12.504;2023-04-16T09:14:50;12.23;;;9.40;;
37715;SDS011;23562;50.540;12.504;2023-04-16T09:17:15;12.45;;;8.95;;
37715;SDS011;23562;50.540;12.504;2023-04-16T09:19:40;12.93;;;8.82;;
37715;SDS011;23562;50.540;12.504;2023-04-16T09:22:06;8.77;;;7.30;;
37715;SDS011;23562;50.540;12.504;2023-04-16T09:24:31;11.57;;;7.97;;
37715;SDS011;23562;50.540;12.504;2023-04-16T09:26:56;15.73;;;12.13;;
37715;SDS011;23562;50.540;12.504;2023-04-16T09:29:32;23.05;;;14.95;;
37715;SDS011;23562;50.540;12.504;2023-04-16T09:32:01;11.45;;;8.88;;
37715;SDS011;23562;50.540;12.504;2023-04-16T09:34:27;11.05;;;8.10;;
37715;SDS011;23562;50.540;12.504;2023-04-16T09:36:52;10.30;;;8.23;;
37715;SDS011;23562;50.540;12.504;2023-04-16T09:39:18;19.65;;;9.23;;
37715;SDS011;23562;50.540;12.504;2023-04-16T09:41:43;11.27;;;8.77;;
37715;SDS011;23562;50.540;12.504;2023-04-16T09:44:11;11.20;;;8.10;;
37715;SDS011;23562;50.540;12.504;2023-04-16T09:46:39;13.70;;;8.63;;
37715;SDS011;23562;50.540;12.504;2023-04-16T09:49:08;12.95;;;8.90;;
37715;SDS011;23562;50.540;12.504;2023-04-16T09:51:39;11.40;;;8.30;;
37715;SDS011;23562;50.540;12.504;2023-04-16T09:56:30;10.35;;;7.13;;
37715;SDS011;23562;50.540;12.504;2023-04-16T09:58:56;10.65;;;7.35;;
37715;SDS011;23562;50.540;12.504;2023-04-16T10:01:22;10.55;;;7.97;;
37715;SDS011;23562;50.540;12.504;2023-04-16T10:03:48;10.10;;;7.07;;
37715;SDS011;23562;50.540;12.504;2023-04-16T10:06:17;9.38;;;7.25;;
37715;SDS011;23562;50.540;12.504;2023-04-16T10:08:45;10.20;;;7.72;;
37715;SDS011;23562;50.540;12.504;2023-04-16T10:11:10;12.48;;;9.13;;
37715;SDS011;23562;50.540;12.504;2023-04-16T10:13:36;10.15;;;7.72;;
37715;SDS011;23562;50.540;12.504;2023-04-16T10:19:03;13.35;;;10.32;;
37715;SDS011;23562;50.540;12.504;2023-04-16T10:21:29;16.45;;;12.05;;
37715;SDS011;23562;50.540;12.504;2023-04-16T10:23:57;15.55;;;11.05;;
37715;SDS011;23562;50.540;12.504;2023-04-16T10:26:22;26.37;;;11.13;;
37715;SDS011;23562;50.540;12.504;2023-04-16T10:28:48;15.48;;;11.43;;
37715;SDS011;23562;50.540;12.504;2023-04-16T10:31:13;18.90;;;12.50;;
37715;SDS011;23562;50.540;12.504;2023-04-16T10:33:39;16.40;;;11.82;;
37715;SDS011;23562;50.540;12.504;2023-04-16T10:38:33;14.55;;;10.18;;
37715;SDS011;23562;50.540;12.504;2023-04-16T10:41:01;14.70;;;11.25;;
37715;SDS011;23562;50.540;12.504;2023-04-16T10:43:27;14.57;;;11.13;;
37715;SDS011;23562;50.540;12.504;2023-04-16T10:45:52;13.13;;;10.70;;
37715;SDS011;23562;50.540;12.504;2023-04-16T10:48:17;12.07;;;9.00;;
37715;SDS011;23562;50.540;12.504;2023-04-16T10:50:46;13.57;;;10.57;;
37715;SDS011;23562;50.540;12.504;2023-04-16T10:53:22;15.88;;;11.00;;
37715;SDS011;23562;50.540;12.504;2023-04-16T10:58:26;11.48;;;9.05;;
37715;SDS011;23562;50.540;12.504;2023-04-16T11:00:51;13.65;;;9.52;;
37715;SDS011;23562;50.540;12.504;2023-04-16T11:03:16;11.02;;;9.20;;
37715;SDS011;23562;50.540;12.504;2023-04-16T11:05:44;11.15;;;8.90;;
37715;SDS011;23562;50.540;12.504;2023-04-16T11:08:12;12.45;;;9.20;;
37715;SDS011;23562;50.540;12.504;2023-04-16T11:10:38;12.70;;;9.90;;
37715;SDS011;23562;50.540;12.504;2023-04-16T11:13:03;13.03;;;9.40;;
37715;SDS011;23562;50.540;12.504;2023-04-16T11:15:30;12.13;;;9.25;;
37715;SDS011;23562;50.540;12.504;2023-04-16T11:17:57;10.93;;;8.50;;
37715;SDS011;23562;50.540;12.504;2023-04-16T11:22:48;11.00;;;8.60;;
37715;SDS011;23562;50.540;12.504;2023-04-16T11:25:18;10.93;;;7.05;;
37715;SDS011;23562;50.540;12.504;2023-04-16T11:27:52;13.00;;;9.95;;
37715;SDS011;23562;50.540;12.504;2023-04-16T11:30:17;11.98;;;9.38;;
37715;SDS011;23562;50.540;12.504;2023-04-16T11:32:43;10.55;;;8.50;;
37715;SDS011;23562;50.540;12.504;2023-04-16T11:35:13;10.02;;;7.53;;
37715;SDS011;23562;50.540;12.504;2023-04-16T11:37:39;9.90;;;7.90;;
37715;SDS011;23562;50.540;12.504;2023-04-16T11:40:04;9.45;;;7.70;;
37715;SDS011;23562;50.540;12.504;2023-04-16T11:42:33;9.32;;;7.65;;
37715;SDS011;23562;50.540;12.504;2023-04-16T11:45:01;8.38;;;6.63;;
37715;SDS011;23562;50.540;12.504;2023-04-16T11:47:27;9.00;;;7.35;;
37715;SDS011;23562;50.540;12.504;2023-04-16T11:49:53;8.85;;;7.28;;
37715;SDS011;23562;50.540;12.504;2023-04-16T11:52:24;8.55;;;7.32;;
37715;SDS011;23562;50.540;12.504;2023-04-16T11:57:29;9.10;;;6.63;;
37715;SDS011;23562;50.540;12.504;2023-04-16T11:59:58;7.55;;;6.45;;
37715;SDS011;23562;50.540;12.504;2023-04-16T12:02:36;7.85;;;6.80;;
37715;SDS011;23562;50.540;12.504;2023-04-16T12:05:02;9.65;;;6.60;;
37715;SDS011;23562;50.540;12.504;2023-04-16T12:07:28;7.82;;;6.00;;
37715;SDS011;23562;50.540;12.504;2023-04-16T12:10:03;7.43;;;5.97;;
37715;SDS011;23562;50.540;12.504;2023-04-16T12:12:30;7.10;;;5.90;;
37715;SDS011;23562;50.540;12.504;2023-04-16T12:14:56;8.68;;;6.60;;
37715;SDS011;23562;50.540;12.504;2023-04-16T12:17:23;7.35;;;6.32;;
37715;SDS011;23562;50.540;12.504;2023-04-16T12:19:54;10.20;;;7.00;;
37715;SDS011;23562;50.540;12.504;2023-04-16T12:22:27;8.05;;;6.80;;
37715;SDS011;23562;50.540;12.504;2023-04-16T12:24:57;7.68;;;6.38;;
37715;SDS011;23562;50.540;12.504;2023-04-16T12:27:22;10.80;;;7.60;;
37715;SDS011;23562;50.540;12.504;2023-04-16T12:30:03;12.45;;;9.02;;
37715;SDS011;23562;50.540;12.504;2023-04-16T12:32:28;10.63;;;8.25;;
37715;SDS011;23562;50.540;12.504;2023-04-16T12:34:53;10.80;;;9.32;;
37715;SDS011;23562;50.540;12.504;2023-04-16T12:37:21;12.35;;;9.98;;
37715;SDS011;23562;50.540;12.504;2023-04-16T12:42:49;11.90;;;10.20;;
37715;SDS011;23562;50.540;12.504;2023-04-16T12:45:14;12.25;;;9.65;;
37715;SDS011;23562;50.540;12.504;2023-04-16T12:47:39;10.57;;;9.10;;
37715;SDS011;23562;50.540;12.504;2023-04-16T12:50:05;13.98;;;9.50;;
37715;SDS011;23562;50.540;12.504;2023-04-16T12:52:31;11.80;;;9.85;;
37715;SDS011;23562;50.540;12.504;2023-04-16T12:54:56;11.37;;;8.83;;
37715;SDS011;23562;50.540;12.504;2023-04-16T12:57:21;12.07;;;9.90;;
37715;SDS011;23562;50.540;12.504;2023-04-16T12:59:52;10.07;;;8.50;;
37715;SDS011;23562;50.540;12.504;2023-04-16T13:02:17;11.63;;;8.85;;
37715;SDS011;23562;50.540;12.504;2023-04-16T13:04:42;12.70;;;9.38;;
37715;SDS011;23562;50.540;12.504;2023-04-16T13:07:07;10.75;;;8.38;;
37715;SDS011;23562;50.540;12.504;2023-04-16T13:09:32;11.73;;;9.73;;
37715;SDS011;23562;50.540;12.504;2023-04-16T13:11:57;11.67;;;9.33;;
37715;SDS011;23562;50.540;12.504;2023-04-16T13:14:23;14.68;;;10.02;;
37715;SDS011;23562;50.540;12.504;2023-04-16T13:16:51;10.73;;;8.75;;
37715;SDS011;23562;50.540;12.504;2023-04-16T13:19:16;11.90;;;9.63;;
37715;SDS011;23562;50.540;12.504;2023-04-16T13:21:43;11.25;;;8.80;;
37715;SDS011;23562;50.540;12.504;2023-04-16T13:24:08;10.48;;;8.18;;
37715;SDS011;23562;50.540;12.504;2023-04-16T13:26:33;9.30;;;7.60;;
37715;SDS011;23562;50.540;12.504;2023-04-16T13:28:58;8.15;;;6.30;;
37715;SDS011;23562;50.540;12.504;2023-04-16T13:31:24;7.43;;;5.20;;
37715;SDS011;23562;50.540;12.504;2023-04-16T13:33:49;7.75;;;5.40;;
37715;SDS011;23562;50.540;12.504;2023-04-16T13:36:15;7.78;;;5.72;;
37715;SDS011;23562;50.540;12.504;2023-04-16T13:38:40;8.07;;;6.75;;
37715;SDS011;23562;50.540;12.504;2023-04-16T13:41:06;10.50;;;6.93;;
37715;SDS011;23562;50.540;12.504;2023-04-16T13:43:31;9.13;;;6.80;;
37715;SDS011;23562;50.540;12.504;2023-04-16T13:45:56;10.32;;;8.35;;
37715;SDS011;23562;50.540;12.504;2023-04-16T13:48:22;11.73;;;9.23;;
37715;SDS011;23562;50.540;12.504;2023-04-16T13:50:47;10.60;;;8.70;;
37715;SDS011;23562;50.540;12.504;2023-04-16T13:53:12;11.87;;;9.03;;
37715;SDS011;23562;50.540;12.504;2023-04-16T13:55:37;11.98;;;9.07;;
37715;SDS011;23562;50.540;12.504;2023-04-16T13:58:02;11.63;;;7.95;;
37715;SDS011;23562;50.540;12.504;2023-04-16T14:03:30;8.43;;;7.20;;
37715;SDS011;23562;50.540;12.504;2023-04-16T14:08:59;9.90;;;7.78;;
37715;SDS011;23562;50.540;12.504;2023-04-16T14:11:24;10.00;;;6.85;;
37715;SDS011;23562;50.540;12.504;2023-04-16T14:13:49;11.15;;;6.30;;
37715;SDS011;23562;50.540;12.504;2023-04-16T14:16:14;9.45;;;6.63;;
37715;SDS011;23562;50.540;12.504;2023-04-16T14:18:40;9.10;;;5.95;;
37715;SDS011;23562;50.540;12.504;2023-04-16T14:21:06;9.95;;;6.55;;
37715;SDS011;23562;50.540;12.504;2023-04-16T14:23:31;7.75;;;5.32;;
37715;SDS011;23562;50.540;12.504;2023-04-16T14:25:56;10.87;;;8.20;;
37715;SDS011;23562;50.540;12.504;2023-04-16T14:28:21;7.20;;;5.30;;
37715;SDS011;23562;50.540;12.504;2023-04-16T14:30:46;9.87;;;4.90;;
37715;SDS011;23562;50.540;12.504;2023-04-16T14:33:12;6.88;;;4.93;;
37715;SDS011;23562;50.540;12.504;2023-04-16T14:35:46;7.03;;;4.53;;
37715;SDS011;23562;50.540;12.504;2023-04-16T14:38:11;6.68;;;4.97;;